createdAt,value
2024-02-19T00:03:38.787Z,11.40
2024-02-19T00:11:47.639Z,11.40
2024-02-19T00:19:53.474Z,11.70
2024-02-19T00:28:02.025Z,11.90
2024-02-19T00:36:08.244Z,11.70
2024-02-19T00:44:16.944Z,11.00
2024-02-19T00:52:22.783Z,11.00
2024-02-19T01:00:31.113Z,10.40
2024-02-19T01:08:36.842Z,10.80
2024-02-19T01:16:45.131Z,10.60
2024-02-19T01:24:52.178Z,10.70
2024-02-19T01:33:01.369Z,10.80
2024-02-19T01:41:10.019Z,10.80
2024-02-19T01:49:19.418Z,10.60
2024-02-19T01:57:25.887Z,10.70
2024-02-19T02:05:34.736Z,10.40
2024-02-19T02:13:40.533Z,10.30
2024-02-19T02:21:50.173Z,10.30
2024-02-19T02:29:58.805Z,10.20
2024-02-19T02:38:05.230Z,9.90
2024-02-19T02:46:13.691Z,10.10
2024-02-19T02:54:19.531Z,10.10
2024-02-19T03:02:27.938Z,9.80
2024-02-19T03:10:33.622Z,9.70
2024-02-19T03:18:44.788Z,9.70
2024-02-19T03:26:50.879Z,10.00
2024-02-19T03:34:59.524Z,10.10
2024-02-19T03:43:05.418Z,9.80
2024-02-19T03:51:14.119Z,9.10
2024-02-19T03:59:20.070Z,9.20
2024-02-19T04:07:28.396Z,8.60
2024-02-19T04:15:34.461Z,8.30
2024-02-19T04:23:42.754Z,8.20
2024-02-19T04:31:48.423Z,8.30
2024-02-19T04:39:56.715Z,8.20
2024-02-19T04:48:02.702Z,8.10
2024-02-19T04:56:11.587Z,8.10
2024-02-19T05:04:17.252Z,7.90
2024-02-19T05:12:25.764Z,7.90
2024-02-19T05:20:31.582Z,8.10
2024-02-19T05:28:40.005Z,7.90
2024-02-19T05:36:45.713Z,7.70
2024-02-19T05:44:54.101Z,7.90
2024-02-19T05:52:59.892Z,7.60
2024-02-19T06:01:08.670Z,8.10
2024-02-19T06:09:14.487Z,8.30
2024-02-19T06:17:22.958Z,8.10
2024-02-19T06:25:28.696Z,8.50
2024-02-19T06:33:37.092Z,8.70
2024-02-19T06:41:45.736Z,8.80
2024-02-19T06:49:54.350Z,8.60
2024-02-19T06:58:00.213Z,8.60
2024-02-19T07:06:09.995Z,8.90
2024-02-19T07:14:15.716Z,9.30
2024-02-19T07:22:24.217Z,9.80
2024-02-19T07:30:30.152Z,10.10
2024-02-19T07:38:38.466Z,10.90
2024-02-19T07:46:43.986Z,11.30
2024-02-19T07:54:52.276Z,11.60
2024-02-19T08:02:58.046Z,11.60
2024-02-19T08:11:06.580Z,11.40
2024-02-19T08:19:12.589Z,12.40
2024-02-19T08:27:20.915Z,11.70
2024-02-19T08:35:26.882Z,12.00
2024-02-19T08:43:35.918Z,12.60
2024-02-19T08:51:41.694Z,13.00
2024-02-19T08:59:50.114Z,13.20
2024-02-19T09:07:58.133Z,14.00
2024-02-19T09:16:06.793Z,14.80
2024-02-19T09:24:14.772Z,15.90
2024-02-19T09:32:23.195Z,19.90
2024-02-19T09:40:35.295Z,25.70
2024-02-19T09:48:43.509Z,29.50
2024-02-19T09:56:52.222Z,32.30
2024-02-19T10:05:00.953Z,34.00
2024-02-19T10:13:09.206Z,36.00
2024-02-19T10:21:17.644Z,36.90
2024-02-19T10:29:23.285Z,37.50
2024-02-19T10:37:32.219Z,37.20
2024-02-19T10:45:38.200Z,37.30
2024-02-19T10:53:46.557Z,38.90
2024-02-19T11:01:53.012Z,38.00
2024-02-19T11:10:02.639Z,31.00
2024-02-19T11:18:18.760Z,25.60
2024-02-19T11:26:27.295Z,21.50
2024-02-19T11:34:33.556Z,19.40
2024-02-19T11:42:42.574Z,19.40
2024-02-19T11:50:48.597Z,19.30
2024-02-19T11:58:57.242Z,19.20
2024-02-19T12:07:04.110Z,18.50
2024-02-19T12:15:14.632Z,18.50
2024-02-19T12:23:20.457Z,19.10
2024-02-19T12:31:29.005Z,18.90
2024-02-19T12:39:37.167Z,18.60
2024-02-19T12:47:45.433Z,18.20
2024-02-19T12:55:51.359Z,18.00
2024-02-19T13:03:59.793Z,17.90
2024-02-19T13:12:06.539Z,18.00
2024-02-19T13:20:16.949Z,17.70
2024-02-19T13:28:23.215Z,17.50
2024-02-19T13:36:31.899Z,17.40
2024-02-19T13:44:39.500Z,17.50
2024-02-19T13:52:48.220Z,17.40
2024-02-19T14:00:55.155Z,17.30
2024-02-19T14:09:04.068Z,17.20
2024-02-19T14:17:12.814Z,17.20
2024-02-19T14:25:22.210Z,16.10
2024-02-19T14:33:28.024Z,16.60
2024-02-19T14:41:36.483Z,16.60
2024-02-19T14:49:42.972Z,16.60
2024-02-19T14:57:52.384Z,16.50
2024-02-19T15:05:58.252Z,16.30
2024-02-19T15:14:06.522Z,16.30
2024-02-19T15:22:13.621Z,16.10
2024-02-19T15:30:21.997Z,16.10
2024-02-19T15:38:27.642Z,16.00
2024-02-19T15:46:36.976Z,16.00
2024-02-19T15:54:43.293Z,15.90
2024-02-19T16:02:51.824Z,15.80
2024-02-19T16:11:01.338Z,15.60
2024-02-19T16:19:09.764Z,15.60
2024-02-19T16:27:16.141Z,15.40
2024-02-19T16:35:24.518Z,15.10
2024-02-19T16:43:30.959Z,14.80
2024-02-19T16:51:46.643Z,14.80
2024-02-19T16:59:52.488Z,14.70
2024-02-19T17:08:04.048Z,14.80
2024-02-19T17:16:10.365Z,14.70
2024-02-19T17:24:18.868Z,14.70
2024-02-19T17:32:25.126Z,14.60
2024-02-19T17:40:34.243Z,14.60
2024-02-19T17:48:40.053Z,14.40
2024-02-19T17:56:49.467Z,14.40
2024-02-19T18:05:01.011Z,14.20
2024-02-19T18:13:10.291Z,13.90
2024-02-19T18:21:17.903Z,13.80
2024-02-19T18:29:26.473Z,14.00
2024-02-19T18:37:32.251Z,13.80
2024-02-19T18:45:42.768Z,13.50
2024-02-19T18:53:48.437Z,13.30
2024-02-19T19:01:56.996Z,13.10
2024-02-19T19:10:03.364Z,13.00
2024-02-19T19:18:15.350Z,12.90
2024-02-19T19:26:22.283Z,12.60
2024-02-19T19:34:30.768Z,12.60
2024-02-19T19:42:37.362Z,12.70
2024-02-19T19:50:45.861Z,12.60
2024-02-19T19:58:55.106Z,12.30
2024-02-19T20:07:05.033Z,12.30
2024-02-19T20:15:11.644Z,12.20
2024-02-19T20:23:20.109Z,12.40
2024-02-19T20:31:26.978Z,12.40
2024-02-19T20:39:35.595Z,12.40
2024-02-19T20:47:41.829Z,12.40
2024-02-19T20:55:50.052Z,12.40
2024-02-19T21:03:55.926Z,12.30
2024-02-19T21:12:04.286Z,12.40
2024-02-19T21:20:12.409Z,12.10
2024-02-19T21:28:21.046Z,12.10
2024-02-19T21:36:26.964Z,11.90
2024-02-19T21:44:35.374Z,11.90
2024-02-19T21:52:42.281Z,11.90
2024-02-19T22:00:51.523Z,11.50
2024-02-19T22:08:57.331Z,11.50
2024-02-19T22:17:05.793Z,11.40
2024-02-19T22:25:16.663Z,10.80
2024-02-19T22:33:26.218Z,10.80
2024-02-19T22:41:32.200Z,10.70
2024-02-19T22:49:41.407Z,10.50
2024-02-19T22:57:47.277Z,10.50
2024-02-19T23:05:56.061Z,10.60
2024-02-19T23:14:01.761Z,10.20
2024-02-19T23:22:10.229Z,10.30
2024-02-19T23:30:17.483Z,10.40
2024-02-19T23:38:27.132Z,10.30
2024-02-19T23:46:34.210Z,10.10
2024-02-19T23:54:44.073Z,9.50
